createdAt,value
2022-11-29T00:00:52.604Z,5.59
2022-11-29T00:03:19.450Z,5.61
2022-11-29T00:05:46.585Z,5.54
2022-11-29T00:08:13.837Z,5.52
2022-11-29T00:10:40.748Z,5.55
2022-11-29T00:13:07.461Z,5.54
2022-11-29T00:15:38.783Z,5.58
2022-11-29T00:18:06.393Z,5.55
2022-11-29T00:20:34.651Z,5.56
2022-11-29T00:23:01.780Z,5.55
2022-11-29T00:25:28.739Z,5.56
2022-11-29T00:28:05.070Z,5.57
2022-11-29T00:30:31.755Z,5.58
2022-11-29T00:32:58.815Z,5.60
2022-11-29T00:35:25.514Z,5.59
2022-11-29T00:37:52.167Z,5.59
2022-11-29T00:40:19.039Z,5.63
2022-11-29T00:42:45.808Z,5.59
2022-11-29T00:45:12.477Z,5.59
2022-11-29T00:47:39.203Z,5.63
2022-11-29T00:50:07.346Z,5.66
2022-11-29T00:52:34.019Z,5.64
2022-11-29T00:55:00.839Z,5.61
2022-11-29T00:57:27.564Z,5.65
2022-11-29T00:59:54.398Z,5.61
2022-11-29T01:02:21.077Z,5.61
2022-11-29T01:04:47.829Z,5.62
2022-11-29T01:07:14.877Z,5.63
2022-11-29T01:09:41.606Z,5.63
2022-11-29T01:12:08.341Z,5.67
2022-11-29T01:14:35.769Z,5.67
2022-11-29T01:17:02.461Z,5.58
2022-11-29T01:19:29.161Z,5.63
2022-11-29T01:21:55.861Z,5.60
2022-11-29T01:24:22.913Z,5.63
2022-11-29T01:26:49.808Z,5.60
2022-11-29T01:29:16.508Z,5.68
2022-11-29T01:31:43.199Z,5.60
2022-11-29T01:34:11.043Z,5.66
2022-11-29T01:36:37.783Z,5.61
2022-11-29T01:39:05.916Z,5.58
2022-11-29T01:41:34.696Z,5.59
2022-11-29T01:44:04.481Z,5.51
2022-11-29T01:46:37.199Z,5.47
2022-11-29T01:49:09.119Z,5.51
2022-11-29T01:51:38.318Z,5.45
2022-11-29T01:54:05.732Z,5.44
2022-11-29T01:56:34.091Z,5.45
2022-11-29T01:59:03.769Z,5.41
2022-11-29T02:01:31.225Z,5.44
2022-11-29T02:03:58.551Z,5.50
2022-11-29T02:06:25.510Z,5.51
2022-11-29T02:08:52.372Z,5.50
2022-11-29T02:11:31.143Z,5.55
2022-11-29T02:14:28.490Z,5.51
2022-11-29T02:16:57.877Z,5.49
2022-11-29T02:19:47.419Z,5.52
2022-11-29T02:22:19.659Z,5.53
2022-11-29T02:25:22.066Z,5.53
2022-11-29T02:27:48.715Z,5.51
2022-11-29T02:30:21.738Z,5.46
2022-11-29T02:33:27.509Z,5.33
2022-11-29T02:36:09.714Z,5.31
2022-11-29T02:38:48.607Z,5.38
2022-11-29T02:41:30.273Z,5.34
2022-11-29T02:44:05.679Z,5.41
2022-11-29T02:46:35.133Z,5.26
2022-11-29T02:49:45.408Z,5.26
2022-11-29T02:52:19.325Z,5.29
2022-11-29T02:55:03.841Z,5.22
2022-11-29T02:57:39.597Z,5.28
2022-11-29T03:00:21.733Z,5.21
2022-11-29T03:02:53.717Z,5.18
2022-11-29T03:05:42.112Z,5.22
2022-11-29T03:08:46.362Z,5.23
2022-11-29T03:11:24.924Z,5.20
2022-11-29T03:14:35.851Z,5.24
2022-11-29T03:17:36.994Z,5.24
2022-11-29T03:20:27.358Z,5.24
2022-11-29T03:23:22.069Z,5.21
2022-11-29T03:26:04.115Z,5.25
2022-11-29T03:28:54.143Z,5.22
2022-11-29T03:31:32.358Z,5.18
2022-11-29T03:34:04.763Z,5.16
2022-11-29T03:36:34.979Z,5.17
2022-11-29T03:39:06.077Z,5.18
2022-11-29T03:41:40.561Z,5.18
2022-11-29T03:44:15.394Z,5.18
2022-11-29T03:46:51.197Z,5.24
2022-11-29T03:49:28.917Z,5.15
2022-11-29T03:52:11.197Z,5.24
2022-11-29T03:54:40.946Z,5.22
2022-11-29T03:57:07.841Z,5.17
2022-11-29T03:59:57.464Z,5.19
2022-11-29T04:02:47.622Z,5.16
2022-11-29T04:05:30.070Z,5.18
2022-11-29T04:08:21.221Z,5.15
2022-11-29T04:11:09.670Z,5.09
2022-11-29T04:13:57.705Z,5.26
2022-11-29T04:16:27.539Z,5.15
2022-11-29T04:19:00.411Z,5.12
2022-11-29T04:21:45.114Z,5.11
2022-11-29T04:24:27.451Z,5.19
2022-11-29T04:27:28.293Z,5.20
2022-11-29T04:30:04.365Z,5.20
2022-11-29T04:33:05.296Z,5.11
2022-11-29T04:35:52.183Z,5.07
2022-11-29T04:38:37.551Z,5.11
2022-11-29T04:41:12.923Z,5.08
2022-11-29T04:43:57.611Z,5.15
2022-11-29T04:46:39.633Z,5.09
2022-11-29T04:49:25.269Z,5.15
2022-11-29T04:52:07.194Z,5.14
2022-11-29T04:55:07.046Z,5.17
2022-11-29T04:57:47.639Z,5.18
2022-11-29T05:00:19.734Z,5.16
2022-11-29T05:03:00.083Z,5.19
2022-11-29T05:05:41.566Z,5.20
2022-11-29T05:08:36.120Z,5.18
2022-11-29T05:11:09.383Z,5.06
2022-11-29T05:14:00.943Z,5.06
2022-11-29T05:16:45.642Z,5.06
2022-11-29T05:19:28.965Z,5.08
2022-11-29T05:22:18.152Z,5.10
2022-11-29T05:25:03.626Z,5.18
2022-11-29T05:27:42.425Z,5.18
2022-11-29T05:30:09.375Z,5.18
2022-11-29T05:33:10.258Z,5.20
2022-11-29T05:35:42.810Z,5.08
2022-11-29T05:38:12.474Z,5.17
2022-11-29T05:40:45.448Z,5.19
2022-11-29T05:43:51.066Z,5.11
2022-11-29T05:46:50.167Z,5.11
2022-11-29T05:49:30.356Z,5.06
2022-11-29T05:52:36.892Z,5.09
2022-11-29T05:55:27.628Z,5.05
2022-11-29T05:57:56.973Z,5.11
2022-11-29T06:00:25.251Z,5.18
2022-11-29T06:03:09.308Z,5.13
2022-11-29T06:05:47.166Z,5.11
2022-11-29T06:08:22.056Z,5.15
2022-11-29T06:11:06.165Z,5.15
2022-11-29T06:13:45.610Z,5.06
2022-11-29T06:16:30.909Z,5.07
2022-11-29T06:19:23.792Z,5.07
2022-11-29T06:22:02.726Z,5.11
2022-11-29T06:24:46.114Z,5.09
2022-11-29T06:27:29.595Z,5.08
2022-11-29T06:30:12.304Z,5.14
2022-11-29T06:32:52.355Z,5.09
2022-11-29T06:35:22.462Z,5.24
2022-11-29T06:37:51.072Z,5.23
2022-11-29T06:40:17.911Z,5.14
2022-11-29T06:42:44.843Z,5.22
2022-11-29T06:45:13.959Z,5.12
2022-11-29T06:47:47.000Z,5.14
2022-11-29T06:50:19.919Z,5.14
2022-11-29T06:53:12.597Z,5.11
2022-11-29T06:55:42.275Z,5.10
2022-11-29T06:58:18.027Z,5.15
2022-11-29T07:01:02.255Z,5.12
2022-11-29T07:03:53.292Z,5.12
2022-11-29T07:06:27.257Z,5.12
2022-11-29T07:09:01.800Z,5.11
2022-11-29T07:11:28.905Z,5.15
2022-11-29T07:13:55.816Z,5.12
2022-11-29T07:16:46.567Z,5.11
2022-11-29T07:19:46.225Z,5.10
2022-11-29T07:22:43.681Z,5.05
2022-11-29T07:25:37.296Z,5.12
2022-11-29T07:28:41.047Z,5.07
2022-11-29T07:31:29.034Z,5.05
2022-11-29T07:33:59.729Z,5.06
2022-11-29T07:36:33.345Z,5.12
2022-11-29T07:39:10.033Z,5.08
2022-11-29T07:41:43.462Z,5.07
2022-11-29T07:44:32.706Z,5.06
2022-11-29T07:46:59.466Z,5.06
2022-11-29T07:49:26.390Z,5.07
2022-11-29T07:51:55.060Z,5.07
2022-11-29T07:54:22.630Z,5.10
2022-11-29T07:56:49.545Z,5.12
2022-11-29T07:59:16.470Z,5.12
2022-11-29T08:01:43.208Z,5.17
2022-11-29T08:04:09.975Z,5.17
2022-11-29T08:06:37.270Z,5.18
2022-11-29T08:09:04.939Z,5.21
2022-11-29T08:11:31.605Z,5.25
2022-11-29T08:14:02.248Z,5.31
2022-11-29T08:16:29.653Z,5.27
2022-11-29T08:18:56.463Z,5.33
2022-11-29T08:21:23.209Z,5.31
2022-11-29T08:23:50.982Z,5.34
2022-11-29T08:26:18.885Z,5.29
2022-11-29T08:28:45.781Z,5.33
2022-11-29T08:31:13.969Z,5.32
2022-11-29T08:33:43.000Z,5.35
2022-11-29T08:36:12.766Z,5.41
2022-11-29T08:38:40.115Z,5.39
2022-11-29T08:41:08.386Z,5.39
2022-11-29T08:43:35.732Z,5.49
2022-11-29T08:46:02.486Z,5.43
2022-11-29T08:48:29.310Z,5.43
2022-11-29T08:50:56.877Z,5.43
2022-11-29T08:53:42.309Z,5.45
2022-11-29T08:56:53.376Z,5.52
2022-11-29T08:58:59.790Z,5.52
2022-11-29T09:01:26.990Z,5.53
2022-11-29T09:03:59.588Z,5.55
2022-11-29T09:06:28.172Z,5.60
2022-11-29T09:08:56.586Z,5.68
2022-11-29T09:11:25.048Z,5.74
2022-11-29T09:13:57.772Z,5.77
2022-11-29T09:16:27.134Z,5.62
2022-11-29T09:18:56.013Z,5.73
2022-11-29T09:21:27.356Z,5.70
2022-11-29T09:23:59.136Z,5.77
2022-11-29T09:26:29.404Z,5.79
2022-11-29T09:28:58.066Z,5.77
2022-11-29T09:31:24.870Z,5.79
2022-11-29T09:33:51.950Z,5.81
2022-11-29T09:36:23.767Z,5.86
2022-11-29T09:38:53.422Z,5.94
2022-11-29T09:41:32.924Z,5.97
2022-11-29T09:44:10.197Z,5.94
2022-11-29T09:47:18.495Z,5.96
2022-11-29T09:50:24.958Z,5.89
2022-11-29T09:53:21.035Z,5.90
2022-11-29T09:56:16.995Z,5.98
2022-11-29T09:58:46.669Z,5.95
2022-11-29T10:01:19.758Z,5.87
2022-11-29T10:03:51.985Z,6.02
2022-11-29T10:06:45.655Z,6.04
2022-11-29T10:09:23.322Z,5.98
2022-11-29T10:12:08.842Z,6.03
2022-11-29T10:14:49.527Z,6.08
2022-11-29T10:17:19.591Z,5.99
2022-11-29T10:19:58.590Z,6.03
2022-11-29T10:22:56.239Z,6.11
2022-11-29T10:25:35.226Z,6.10
2022-11-29T10:28:04.339Z,6.05
2022-11-29T10:30:34.342Z,6.04
2022-11-29T10:33:01.159Z,6.03
2022-11-29T10:35:29.655Z,6.12
2022-11-29T10:38:29.000Z,6.10
2022-11-29T10:40:48.032Z,6.11
2022-11-29T10:43:14.704Z,6.17
2022-11-29T10:45:50.719Z,6.24
2022-11-29T10:48:19.994Z,6.23
2022-11-29T10:50:49.054Z,6.23
2022-11-29T10:53:19.038Z,6.29
2022-11-29T10:55:53.859Z,6.37
2022-11-29T10:58:28.279Z,6.35
2022-11-29T11:00:58.187Z,6.31
2022-11-29T11:03:43.818Z,6.28
2022-11-29T11:06:14.803Z,6.29
2022-11-29T11:08:44.687Z,6.30
2022-11-29T11:11:12.201Z,6.35
2022-11-29T11:13:40.963Z,6.34
2022-11-29T11:16:13.930Z,6.27
2022-11-29T11:18:40.697Z,6.32
2022-11-29T11:21:13.062Z,6.28
2022-11-29T11:23:46.768Z,6.38
2022-11-29T11:26:14.871Z,6.36
2022-11-29T11:28:47.293Z,6.26
2022-11-29T11:31:14.133Z,6.30
2022-11-29T11:33:45.377Z,6.30
2022-11-29T11:36:15.318Z,6.32
2022-11-29T11:38:52.954Z,6.33
2022-11-29T11:41:52.743Z,6.35
2022-11-29T11:44:52.572Z,6.34
2022-11-29T11:47:25.238Z,6.35
2022-11-29T11:50:02.339Z,6.39
2022-11-29T11:52:39.796Z,6.42
2022-11-29T11:55:28.094Z,6.43
2022-11-29T11:58:13.011Z,6.39
2022-11-29T12:03:45.773Z,6.40
2022-11-29T12:06:50.277Z,6.41
2022-11-29T12:09:35.747Z,6.52
2022-11-29T12:12:08.105Z,6.40
2022-11-29T12:14:40.914Z,6.39
2022-11-29T12:17:42.110Z,6.47
2022-11-29T12:20:24.045Z,6.45
2022-11-29T12:22:53.711Z,6.38
2022-11-29T12:25:32.185Z,6.41
2022-11-29T12:27:58.967Z,6.43
2022-11-29T12:30:25.744Z,6.39
2022-11-29T12:32:56.866Z,6.47
2022-11-29T12:35:39.561Z,6.44
2022-11-29T12:38:13.571Z,6.54
2022-11-29T12:40:59.465Z,6.51
2022-11-29T12:43:41.471Z,6.50
2022-11-29T12:46:28.474Z,6.46
2022-11-29T12:49:13.446Z,6.46
2022-11-29T12:52:01.675Z,6.40
2022-11-29T12:54:41.057Z,6.52
2022-11-29T12:57:22.918Z,6.46
2022-11-29T13:00:14.847Z,6.41
2022-11-29T13:03:13.212Z,6.51
2022-11-29T13:05:39.995Z,6.39
2022-11-29T13:08:42.195Z,6.47
2022-11-29T13:11:25.616Z,6.48
2022-11-29T13:14:20.183Z,6.51
2022-11-29T13:17:04.046Z,6.55
2022-11-29T13:19:49.261Z,6.52
2022-11-29T13:22:21.470Z,6.48
2022-11-29T13:24:55.152Z,6.46
2022-11-29T13:27:29.258Z,6.46
2022-11-29T13:29:56.259Z,6.38
2022-11-29T13:32:37.504Z,6.48
2022-11-29T13:35:34.890Z,6.43
2022-11-29T13:38:10.800Z,6.36
2022-11-29T13:40:45.167Z,6.27
2022-11-29T13:43:39.823Z,6.29
2022-11-29T13:46:20.340Z,6.30
2022-11-29T13:48:49.409Z,6.23
2022-11-29T13:51:37.154Z,6.22
2022-11-29T13:54:06.902Z,6.29
2022-11-29T13:56:48.926Z,6.25
2022-11-29T13:59:23.180Z,6.23
2022-11-29T14:01:53.539Z,6.27
2022-11-29T14:04:28.427Z,6.27
2022-11-29T14:07:11.169Z,6.18
2022-11-29T14:09:45.089Z,6.24
2022-11-29T14:12:37.815Z,6.15
2022-11-29T14:15:16.843Z,6.19
2022-11-29T14:17:56.062Z,6.24
2022-11-29T14:20:22.712Z,6.17
2022-11-29T14:23:04.634Z,6.17
2022-11-29T14:25:54.713Z,6.17
2022-11-29T14:28:21.359Z,6.13
2022-11-29T14:31:01.805Z,6.13
2022-11-29T14:33:43.954Z,6.14
2022-11-29T14:36:33.672Z,6.16
2022-11-29T14:39:21.930Z,6.19
2022-11-29T14:41:51.420Z,6.08
2022-11-29T14:44:26.550Z,6.10
2022-11-29T14:47:07.952Z,6.05
2022-11-29T14:49:40.736Z,6.05
2022-11-29T14:52:13.533Z,6.09
2022-11-29T14:55:18.545Z,6.06
2022-11-29T14:57:48.262Z,6.02
2022-11-29T15:00:15.058Z,5.97
2022-11-29T15:02:46.183Z,6.05
2022-11-29T15:05:32.252Z,6.02
2022-11-29T15:08:19.047Z,5.89
2022-11-29T15:10:56.359Z,5.89
2022-11-29T15:13:32.083Z,5.89
2022-11-29T15:16:11.005Z,5.87
2022-11-29T15:18:40.710Z,5.83
2022-11-29T15:21:36.392Z,5.88
2022-11-29T15:24:10.928Z,5.84
2022-11-29T15:26:37.805Z,5.85
2022-11-29T15:29:20.006Z,5.86
2022-11-29T15:31:50.160Z,5.77
2022-11-29T15:34:32.153Z,5.76
2022-11-29T15:37:00.378Z,5.83
2022-11-29T15:39:37.354Z,5.69
2022-11-29T15:42:12.311Z,5.74
2022-11-29T15:44:45.928Z,5.77
2022-11-29T15:47:26.430Z,5.76
2022-11-29T15:49:54.562Z,5.74
2022-11-29T15:52:28.940Z,5.73
2022-11-29T15:55:00.154Z,5.70
2022-11-29T15:57:30.769Z,5.68
2022-11-29T16:00:01.386Z,5.71
2022-11-29T16:02:32.125Z,5.69
2022-11-29T16:05:04.673Z,5.71
2022-11-29T16:07:34.455Z,5.64
2022-11-29T16:10:12.400Z,5.64
2022-11-29T16:12:57.858Z,5.73
2022-11-29T16:15:27.338Z,5.67
2022-11-29T16:17:54.359Z,5.62
2022-11-29T16:20:25.923Z,5.64
2022-11-29T16:23:08.045Z,5.65
2022-11-29T16:25:37.795Z,5.62
2022-11-29T16:28:06.096Z,5.63
2022-11-29T16:30:33.067Z,5.68
2022-11-29T16:33:00.869Z,5.63
2022-11-29T16:35:34.079Z,5.61
2022-11-29T16:38:04.220Z,5.63
2022-11-29T16:40:33.335Z,5.61
2022-11-29T16:43:23.810Z,5.60
2022-11-29T16:46:21.622Z,5.66
2022-11-29T16:48:52.896Z,5.59
2022-11-29T16:51:32.579Z,5.55
2022-11-29T16:54:19.165Z,5.53
2022-11-29T16:56:45.855Z,5.56
2022-11-29T16:59:24.862Z,5.55
2022-11-29T17:01:53.822Z,5.63
2022-11-29T17:04:23.533Z,5.59
2022-11-29T17:06:51.955Z,5.57
2022-11-29T17:09:36.853Z,5.54
2022-11-29T17:12:03.958Z,5.53
2022-11-29T17:14:31.695Z,5.57
2022-11-29T17:17:02.286Z,5.52
2022-11-29T17:19:29.954Z,5.54
2022-11-29T17:21:56.671Z,5.56
2022-11-29T17:24:24.071Z,5.59
2022-11-29T17:26:51.368Z,5.65
2022-11-29T17:29:21.484Z,5.55
2022-11-29T17:31:53.857Z,5.59
2022-11-29T17:34:20.700Z,5.59
2022-11-29T17:36:52.560Z,5.63
2022-11-29T17:39:20.412Z,5.62
2022-11-29T17:41:47.179Z,5.62
2022-11-29T17:44:13.980Z,5.63
2022-11-29T17:46:40.812Z,5.63
2022-11-29T17:49:09.660Z,5.63
2022-11-29T17:51:51.716Z,5.63
2022-11-29T17:54:19.265Z,5.61
2022-11-29T17:56:46.084Z,5.62
2022-11-29T17:59:12.782Z,5.67
2022-11-29T18:01:39.578Z,5.73
2022-11-29T18:04:06.685Z,5.60
2022-11-29T18:06:40.368Z,5.65
2022-11-29T18:09:09.406Z,5.64
2022-11-29T18:11:47.708Z,5.67
2022-11-29T18:14:21.678Z,5.63
2022-11-29T18:16:48.616Z,5.64
2022-11-29T18:19:17.941Z,5.72
2022-11-29T18:21:44.909Z,5.72
2022-11-29T18:24:11.715Z,5.66
2022-11-29T18:26:39.266Z,5.59
2022-11-29T18:29:07.314Z,5.64
2022-11-29T18:31:38.891Z,5.61
2022-11-29T18:34:09.901Z,5.62
2022-11-29T18:36:44.710Z,5.60
2022-11-29T18:39:16.824Z,5.59
2022-11-29T18:41:47.007Z,5.59
2022-11-29T18:44:15.067Z,5.61
2022-11-29T18:46:43.998Z,5.60
2022-11-29T18:49:13.377Z,5.61
2022-11-29T18:51:42.375Z,5.64
2022-11-29T18:54:09.175Z,5.62
2022-11-29T18:56:36.884Z,5.61
2022-11-29T18:59:10.387Z,5.62
2022-11-29T19:01:42.816Z,5.62
2022-11-29T19:04:12.535Z,5.59
2022-11-29T19:06:40.482Z,5.59
2022-11-29T19:09:11.499Z,5.64
2022-11-29T19:11:38.717Z,5.63
2022-11-29T19:14:11.781Z,5.65
2022-11-29T19:16:40.969Z,5.62
2022-11-29T19:19:08.004Z,5.60
2022-11-29T19:21:35.169Z,5.59
2022-11-29T19:24:04.557Z,5.62
2022-11-29T19:26:32.745Z,5.63
2022-11-29T19:29:03.317Z,5.58
2022-11-29T19:31:30.995Z,5.67
2022-11-29T19:33:58.910Z,5.58
2022-11-29T19:36:28.489Z,5.63
2022-11-29T19:38:56.900Z,5.59
2022-11-29T19:41:27.039Z,5.64
2022-11-29T19:43:56.538Z,5.59
2022-11-29T19:46:29.470Z,5.62
2022-11-29T19:48:58.564Z,5.58
2022-11-29T19:51:27.290Z,5.52
2022-11-29T19:53:57.112Z,5.58
2022-11-29T19:56:26.769Z,5.46
2022-11-29T19:58:54.942Z,5.58
2022-11-29T20:01:26.003Z,5.56
2022-11-29T20:03:53.990Z,5.57
2022-11-29T20:06:22.170Z,5.51
2022-11-29T20:08:49.890Z,5.51
2022-11-29T20:11:20.358Z,5.53
2022-11-29T20:14:18.608Z,5.43
2022-11-29T20:16:46.798Z,5.40
2022-11-29T20:19:17.025Z,5.42
2022-11-29T20:21:48.818Z,5.41
2022-11-29T20:24:20.487Z,5.36
2022-11-29T20:26:51.101Z,5.40
2022-11-29T20:29:19.454Z,5.39
2022-11-29T20:31:50.482Z,5.36
2022-11-29T20:34:18.422Z,5.37
2022-11-29T20:37:13.337Z,5.29
2022-11-29T20:39:53.310Z,5.27
2022-11-29T20:42:29.736Z,5.20
2022-11-29T20:45:01.116Z,5.23
2022-11-29T20:47:47.151Z,5.28
2022-11-29T20:50:44.574Z,5.24
2022-11-29T20:53:36.429Z,5.25
2022-11-29T20:56:04.806Z,5.20
2022-11-29T20:58:31.647Z,5.22
2022-11-29T21:00:59.034Z,5.21
2022-11-29T21:03:26.673Z,5.18
2022-11-29T21:05:53.851Z,5.21
2022-11-29T21:08:24.825Z,5.20
2022-11-29T21:10:51.921Z,5.24
2022-11-29T21:13:23.097Z,5.20
2022-11-29T21:15:50.634Z,5.24
2022-11-29T21:18:28.131Z,5.11
2022-11-29T21:21:23.340Z,5.08
2022-11-29T21:23:58.039Z,5.06
2022-11-29T21:26:41.714Z,5.09
2022-11-29T21:29:18.760Z,5.03
2022-11-29T21:31:47.994Z,5.06
2022-11-29T21:34:14.747Z,4.96
2022-11-29T21:36:41.772Z,5.02
2022-11-29T21:39:11.779Z,4.98
2022-11-29T21:41:38.435Z,4.95
2022-11-29T21:44:07.565Z,4.95
2022-11-29T21:46:34.960Z,4.88
2022-11-29T21:49:02.167Z,4.86
2022-11-29T21:51:28.880Z,4.95
2022-11-29T21:53:55.590Z,4.91
2022-11-29T21:56:22.596Z,4.96
2022-11-29T21:58:49.310Z,4.93
2022-11-29T22:01:18.825Z,4.92
2022-11-29T22:03:45.753Z,4.94
2022-11-29T22:06:15.446Z,4.93
2022-11-29T22:08:42.447Z,4.86
2022-11-29T22:11:11.751Z,4.94
2022-11-29T22:13:58.595Z,4.95
2022-11-29T22:16:25.789Z,4.96
2022-11-29T22:18:52.565Z,4.97
2022-11-29T22:21:19.462Z,4.91
2022-11-29T22:23:46.177Z,4.92
2022-11-29T22:26:12.978Z,4.89
2022-11-29T22:28:40.003Z,4.93
2022-11-29T22:31:08.787Z,4.91
2022-11-29T22:33:36.102Z,4.88
2022-11-29T22:36:07.999Z,4.96
2022-11-29T22:38:34.972Z,4.94
2022-11-29T22:41:06.702Z,4.92
2022-11-29T22:43:33.676Z,4.90
2022-11-29T22:46:04.483Z,4.93
2022-11-29T22:48:36.958Z,4.85
2022-11-29T22:51:21.365Z,4.90
2022-11-29T22:53:52.934Z,4.91
2022-11-29T22:56:20.743Z,4.84
2022-11-29T22:58:47.470Z,4.87
2022-11-29T23:01:16.524Z,4.86
2022-11-29T23:03:45.624Z,4.87
2022-11-29T23:06:14.113Z,4.91
2022-11-29T23:08:41.921Z,4.86
2022-11-29T23:11:11.410Z,4.89
2022-11-29T23:13:39.890Z,4.83
2022-11-29T23:16:08.983Z,4.81
2022-11-29T23:18:36.195Z,4.92
2022-11-29T23:21:11.374Z,4.91
2022-11-29T23:23:38.662Z,4.85
2022-11-29T23:26:07.456Z,4.86
2022-11-29T23:28:35.485Z,4.92
2022-11-29T23:31:02.270Z,4.83
2022-11-29T23:33:29.193Z,4.84
2022-11-29T23:36:04.035Z,4.82
2022-11-29T23:38:31.277Z,4.81
2022-11-29T23:40:58.027Z,4.86
2022-11-29T23:43:24.811Z,4.78
2022-11-29T23:45:51.538Z,4.84
2022-11-29T23:48:18.231Z,4.78
2022-11-29T23:50:45.108Z,4.84
2022-11-29T23:53:17.027Z,4.78
2022-11-29T23:55:43.842Z,4.79
2022-11-29T23:58:11.156Z,4.81
